Airfield :
LOGIN :

Register | Disclaimer

   EN    FR    IT 

 










Legend :    VFR   Marginal VFR   IFR   Intensive IFR   Very Intensive IFR
Visi :
Ceiling :
>= 8 km
>= 3000ft
5 to 8 km
1000 to 3000 ft
1500m to 5 km
500 to 1000 ft
800 to 1500m
200 to 500 ft
< 800m
< 200 ft
Symbols :   Thunderstorms  Fog  Heavy snow  Heavy precipitations  Wind > 20 kt
SIGMETs :     Misc.  Thunderstorms  Icing  Turbulence  Mountain Waves  Volcanic Ashes






- Airport Elevation : 1649 ft
- IATA code : HHN


EDFH - Frankfurt-Hahn Rhineland-Palatinate

CURRENT METAR :
  • 181950Z 07008KT 030V100 9999 VCSH BKN015CB 08/06 Q1015

EXPIRED METARs :
  • 181920Z 32005KT 290V010 9999 VCSH SCT016CB 08/06 Q1015
  • 181850Z 28005KT 250V020 9999 FEW043CB 08/06 Q1014
  • 181820Z 26008KT 9999 VCSH FEW030CB 09/06 Q1014
  • 181750Z 26006KT 230V300 9999 FEW030 10/07 Q1014

TAF AMD TAF EDFH
Valid from the 18 at 18:00 until the 19 at 18:00 UTC


181833Z 1818/1918 26005KT 9999 SCT020
PROB40
TEMPO 1818/1821 28015G25KT -TSRA BKN014CB
PROB30
TEMPO 1903/1906 4000 BR BKN008
BECMG 1907/1909 26010KT
TEMPO 1910/1918 SHRA BKN014CB
PROB30
TEMPO 1912/1918 28015G30KT 4000 TSRA



MET'MAP, your aeronautical weather chart ! - Copyright ORBIFLY December 2007 - Disclaimer

ORBIFLY MET'MAP TEAM :

Programming & Development : Alexandra Zaïnal
Concept & original design : Baudouin d'Aumeries
Assistance for programming : Marc-Olivier Méhu
Technical & hardware support : Manuel Goepfert

Contact : metmap@orbifly.com




SOURCES & CREDITS :

   NOAA